Terminal Aerodrome Forecast
Issued by NWS

Home | Current Version | Previous Version | Text Only | Print | Product List | Glossary On
Versions: 1 2 3 4 5 6 7 8 9 10 11 12 13 14 15 16 17 18 19 20
257
FTUS43 KJKL 211139
TAFSME
TAF
KSME 211139Z 2112/2212 VRB06KT 4SM -SHRA BR SCT008 BKN015 OVC035
     FM211600 29005KT P6SM VCSH SCT003 OVC015
     FM211900 30006KT P6SM BKN060 BKN100
     FM220500 VRB03KT 3SM BR FEW250
     FM220800 VRB03KT 2SM BR FEW200 FEW250=

USA.gov is the U.S. government's official web portal to all federal, state and local government web resources and services.